Trevilians, Virginia
Current Conditions -  °F | °C
As of 11:15 AM on Monday 22 Dec 2014 (Local Time) from KLKU Reporting Station
Unknown Precip Unknown Precip  
Wind Chill: 28°   Ceiling: 600
Heat Index: 34°   Visibility: 1mi
Dew Point: 32°   Wind: 7mph
Humidity: 93%   Direction: 10°N
Pressure: 30.22"   Gusts: NA
Location:  38.05°N, 78.07°W
Report Text: KLKU 221615Z AUTO 01006KT 1SM UP OVC006 01/00 A3022 RMK AO2 P0005
Loading
Personal Weather Stations






























Interactive Weather Map New forecast layout! Learn more

10-Day Weather Forecast

Advertisements
Track Severe Weather on mobile